Time;durP1;ratioP1;P1;durP2;ratioP2;P2;SDS_P1;SDS_P2;PMS_P1;PMS_P2;Temp;Humidity;BMP_temperature;BMP_pressure;BME280_temperature;BME280_humidity;BME280_pressure;Samples;Min_cycle;Max_cycle;Signal;HPM_P1;HPM_P2
2023/02/12 00:01:53;;;;;;;2.57;1.67;;;;;;;11.26;87.00;103481.38;6254469;28;20237;-70
2023/02/12 00:05:15;;;;;;;3.67;2.00;;;;;;;10.99;88.56;103493.56;6258596;28;20235;-70
2023/02/12 00:08:37;;;;;;;2.87;2.17;;;;;;;10.99;88.98;103498.09;6252088;28;20227;-70
2023/02/12 00:11:58;;;;;;;2.07;1.87;;;;;;;10.76;89.63;103501.91;6250210;28;20228;-70
2023/02/12 00:15:21;;;;;;;2.30;1.60;;;;;;;10.75;89.03;103505.53;6243891;28;20236;-69
2023/02/12 00:18:42;;;;;;;3.13;1.63;;;;;;;10.66;90.08;103499.72;6261729;28;20224;-69
2023/02/12 00:22:03;;;;;;;1.77;1.37;;;;;;;10.66;89.70;103505.13;6255848;28;20693;-70
2023/02/12 00:25:24;;;;;;;3.30;2.63;;;;;;;10.92;88.45;103508.31;6260476;28;20733;-71
2023/02/12 00:28:45;;;;;;;3.33;2.50;;;;;;;11.18;87.86;103509.75;6256932;28;20264;-71
2023/02/12 00:32:08;;;;;;;5.67;1.97;;;;;;;10.58;89.27;103504.56;6254757;28;20228;-70
2023/02/12 00:35:29;;;;;;;2.27;1.87;;;;;;;10.42;90.02;103515.22;6255424;28;20229;-69
2023/02/12 00:38:51;;;;;;;2.03;1.73;;;;;;;10.65;89.26;103516.84;6252513;28;20236;-70
2023/02/12 00:42:12;;;;;;;3.17;1.47;;;;;;;10.59;89.26;103520.72;6248152;28;20235;-70
2023/02/12 00:45:33;;;;;;;2.80;2.03;;;;;;;10.63;89.04;103525.00;6255964;28;20282;-70
2023/02/12 00:48:55;;;;;;;1.43;1.33;;;;;;;10.55;89.10;103529.00;6247856;28;20240;-70
2023/02/12 00:52:16;;;;;;;1.93;1.53;;;;;;;10.50;89.16;103515.72;6256770;28;20509;-69
2023/02/12 00:55:37;;;;;;;1.73;1.60;;;;;;;10.66;88.63;103519.44;6250735;28;20229;-71
2023/02/12 00:58:59;;;;;;;1.70;1.50;;;;;;;10.57;88.91;103517.22;6257290;28;20236;-69
2023/02/12 01:02:19;;;;;;;2.27;1.20;;;;;;;10.66;88.40;103519.44;6251323;28;20231;-70
2023/02/12 01:05:42;;;;;;;2.13;1.30;;;;;;;10.83;88.03;103518.66;6260265;28;20318;-69
2023/02/12 01:09:03;;;;;;;1.03;0.93;;;;;;;10.60;89.37;103518.88;6243247;28;20235;-70
2023/02/12 01:12:24;;;;;;;1.43;1.30;;;;;;;10.28;90.24;103509.56;6248253;28;20235;-69
2023/02/12 01:15:45;;;;;;;1.37;1.27;;;;;;;10.47;89.38;103517.69;6256984;28;20594;-70
2023/02/12 01:19:05;;;;;;;3.43;2.20;;;;;;;10.58;89.35;103524.34;6243551;28;20232;-70
2023/02/12 01:22:27;;;;;;;1.30;1.20;;;;;;;10.69;89.58;103526.53;6262247;28;20227;-70
2023/02/12 01:25:49;;;;;;;1.20;1.10;;;;;;;10.57;89.23;103530.69;6250036;28;20232;-69
2023/02/12 01:29:10;;;;;;;1.60;1.50;;;;;;;10.42;89.09;103528.69;6255116;28;20551;-70
2023/02/12 01:32:32;;;;;;;2.53;2.33;;;;;;;10.61;88.63;103526.91;6254707;28;20255;-69
2023/02/12 01:35:52;;;;;;;1.80;1.70;;;;;;;10.61;88.61;103535.00;6246913;28;20614;-70
2023/02/12 01:39:14;;;;;;;1.03;0.93;;;;;;;10.47;89.03;103537.47;6245171;28;20236;-70
2023/02/12 01:42:35;;;;;;;1.97;1.10;;;;;;;10.24;90.13;103543.00;6253742;28;20236;-70
2023/02/12 01:46:00;;;;;;;2.23;1.23;;;;;;;10.33;89.69;103534.50;6246714;28;20233;-70
2023/02/12 01:49:26;;;;;;;2.37;1.70;;;;;;;10.38;89.14;103541.44;6256918;28;20236;-69
2023/02/12 01:52:51;;;;;;;1.97;1.70;;;;;;;10.36;89.01;103543.34;6253842;28;20224;-71
2023/02/12 01:56:14;;;;;;;1.50;1.30;;;;;;;10.55;87.92;103546.06;6243865;28;20315;-70
2023/02/12 01:59:37;;;;;;;2.03;1.60;;;;;;;10.59;88.03;103553.06;6250545;28;20629;-70
2023/02/12 02:03:01;;;;;;;3.07;2.27;;;;;;;10.71;86.86;103541.72;6264326;28;20239;-70
2023/02/12 02:06:26;;;;;;;3.07;2.87;;;;;;;10.43;88.26;103546.59;6251919;28;20223;-70
2023/02/12 02:09:47;;;;;;;4.50;3.00;;;;;;;10.82;86.80;103549.31;6244067;28;20231;-71
2023/02/12 02:16:59;;;;;;;5.50;2.67;;;;;;;11.00;85.92;103538.50;6253159;28;20240;-71
2023/02/12 02:20:48;;;;;;;3.53;3.23;;;;;;;11.06;85.91;103535.50;6249847;28;20248;-70
2023/02/12 02:24:37;;;;;;;2.70;2.10;;;;;;;11.15;85.21;103534.19;6242078;28;20225;-71
2023/02/12 02:28:12;;;;;;;3.73;2.17;;;;;;;11.05;85.99;103539.16;6241486;28;20235;-70
2023/02/12 02:31:41;;;;;;;2.23;2.03;;;;;;;10.99;85.94;103539.44;6265420;28;20259;-70
2023/02/12 02:35:07;;;;;;;3.57;2.07;;;;;;;10.45;86.76;103547.44;6249841;28;20224;-70
2023/02/12 02:38:34;;;;;;;2.10;1.90;;;;;;;10.79;86.29;103552.13;6241654;28;20230;-70
2023/02/12 02:42:01;;;;;;;2.07;1.63;;;;;;;10.80;85.65;103549.38;6257446;28;20623;-71
2023/02/12 02:45:29;;;;;;;3.30;2.30;;;;;;;10.52;87.30;103546.19;6262050;28;20224;-70
2023/02/12 02:48:56;;;;;;;2.87;2.13;;;;;;;10.81;85.66;103543.03;6250165;28;20236;-71
2023/02/12 02:52:21;;;;;;;2.73;2.00;;;;;;;11.14;84.40;103546.81;6249873;28;20234;-69
2023/02/12 02:55:46;;;;;;;4.03;2.20;;;;;;;11.37;84.20;103544.81;6487731;23;20229;-71
2023/02/12 02:59:11;;;;;;;3.20;1.57;;;;;;;10.98;84.89;103545.81;6206119;28;20237;-71
2023/02/12 03:02:38;;;;;;;4.20;2.90;;;;;;;10.88;85.60;103546.31;6199692;28;20224;-70
2023/02/12 03:06:05;;;;;;;4.57;3.10;;;;;;;10.71;85.96;103557.00;6223251;28;20356;-70
2023/02/12 03:09:31;;;;;;;2.83;2.03;;;;;;;10.66;86.51;103551.81;6209495;28;20241;-72
2023/02/12 03:12:56;;;;;;;3.57;2.00;;;;;;;10.83;86.11;103548.34;6212936;28;20634;-70
2023/02/12 03:16:22;;;;;;;2.80;1.60;;;;;;;10.88;85.38;103560.69;6223163;28;20237;-71
2023/02/12 03:19:46;;;;;;;3.80;2.20;;;;;;;11.02;84.33;103562.72;6211218;28;20631;-71
2023/02/12 03:23:13;;;;;;;3.83;2.17;;;;;;;10.97;84.72;103559.38;6208421;28;20244;-70
2023/02/12 03:26:41;;;;;;;2.57;2.37;;;;;;;11.12;84.79;103556.81;6218808;28;20610;-70
2023/02/12 03:30:03;;;;;;;3.10;2.80;;;;;;;10.83;85.25;103561.81;6224436;28;20241;-71
2023/02/12 03:33:32;;;;;;;2.70;2.40;;;;;;;11.01;84.66;103556.44;6212539;28;20228;-71
2023/02/12 03:36:59;;;;;;;3.77;2.47;;;;;;;11.01;84.75;103555.59;6211435;28;20229;-71
2023/02/12 03:40:28;;;;;;;1.50;1.40;;;;;;;11.20;84.65;103568.09;6189652;28;20229;-71
2023/02/12 03:43:53;;;;;;;3.53;3.23;;;;;;;11.40;83.53;103561.75;6213892;28;20236;-70
2023/02/12 03:47:21;;;;;;;2.50;2.23;;;;;;;11.24;83.71;103564.31;6211691;28;20233;-70
2023/02/12 03:50:52;;;;;;;4.70;2.87;;;;;;;11.05;84.96;103571.56;6215513;28;20252;-70
2023/02/12 03:54:18;;;;;;;3.73;1.87;;;;;;;11.00;85.55;103581.69;6216048;28;20252;-70
2023/02/12 03:57:44;;;;;;;4.13;2.07;;;;;;;10.79;86.33;103584.50;6217505;28;20229;-71
2023/02/12 04:01:05;;;;;;;2.70;1.70;;;;;;;10.82;86.62;103593.34;6216565;28;20229;-70
2023/02/12 04:04:26;;;;;;;1.97;1.70;;;;;;;10.14;89.06;103588.34;6217640;28;20224;-70
2023/02/12 04:07:48;;;;;;;2.30;1.50;;;;;;;9.90;90.55;103600.16;6202301;28;20241;-70
2023/02/12 04:11:20;;;;;;;4.23;2.47;;;;;;;10.56;88.31;103593.66;6218729;28;20237;-71
2023/02/12 04:14:49;;;;;;;2.17;1.63;;;;;;;10.64;87.65;103598.72;6207448;28;20236;-70
2023/02/12 04:18:15;;;;;;;1.90;1.60;;;;;;;10.84;86.25;103595.97;6206963;28;20653;-72
2023/02/12 04:21:47;;;;;;;2.77;2.03;;;;;;;10.97;86.05;103591.78;6220380;28;20233;-70
2023/02/12 04:25:19;;;;;;;1.57;1.20;;;;;;;10.87;85.62;103591.31;6220892;28;20238;-69
2023/02/12 04:28:47;;;;;;;1.67;1.40;;;;;;;10.89;85.75;103594.81;6211288;28;20224;-70
2023/02/12 04:32:15;;;;;;;2.90;1.40;;;;;;;10.98;85.50;103599.78;6215274;28;20240;-70
2023/02/12 04:35:42;;;;;;;1.93;1.30;;;;;;;10.88;86.55;103606.56;6210937;28;20539;-70
2023/02/12 04:39:09;;;;;;;2.90;1.90;;;;;;;11.15;85.62;103610.66;6205349;28;20260;-70
2023/02/12 04:42:30;;;;;;;2.00;1.50;;;;;;;10.72;87.44;103616.28;6211428;28;20225;-71
2023/02/12 04:45:51;;;;;;;3.43;2.20;;;;;;;10.77;86.81;103611.56;6213570;28;20237;-71
2023/02/12 04:49:15;;;;;;;2.10;1.53;;;;;;;10.69;87.62;103620.97;6204379;28;20237;-70
2023/02/12 04:52:36;;;;;;;2.70;2.00;;;;;;;11.04;86.62;103615.69;6202021;28;20261;-70
2023/02/12 04:55:57;;;;;;;4.33;2.27;;;;;;;10.85;86.86;103617.50;6215477;28;20233;-70
2023/02/12 04:59:18;;;;;;;2.70;1.90;;;;;;;10.58;89.51;103616.03;6218626;28;20511;-70
2023/02/12 05:02:39;;;;;;;4.67;2.43;;;;;;;10.78;89.01;103610.63;6195244;28;20234;-70
2023/02/12 05:06:04;;;;;;;4.30;2.73;;;;;;;10.68;88.81;103605.72;6216196;28;20608;-70
2023/02/12 05:09:25;;;;;;;11.27;3.77;;;;;;;10.28;90.68;103618.28;6210259;28;20622;-70
2023/02/12 05:12:46;;;;;;;6.57;3.70;;;;;;;10.45;89.52;103612.16;6197827;28;21646;-71
2023/02/12 05:16:08;;;;;;;3.77;2.67;;;;;;;10.84;89.26;103613.06;6215153;28;20316;-70
2023/02/12 05:19:28;;;;;;;13.93;4.40;;;;;;;10.11;91.87;103614.56;6213915;28;20228;-69
2023/02/12 05:22:52;;;;;;;6.17;4.60;;;;;;;10.47;91.10;103607.59;6202586;28;20602;-69
2023/02/12 05:26:15;;;;;;;7.37;5.27;;;;;;;10.27;92.73;103616.53;6217193;28;20233;-70
2023/02/12 05:29:36;;;;;;;8.97;6.00;;;;;;;10.49;91.54;103621.88;6214707;28;20221;-69
2023/02/12 05:32:57;;;;;;;14.63;6.10;;;;;;;10.56;91.49;103617.94;6206909;28;20244;-70
2023/02/12 05:36:23;;;;;;;9.63;4.73;;;;;;;10.38;92.28;103614.25;6212532;28;20244;-69
2023/02/12 05:39:45;;;;;;;7.03;5.50;;;;;;;10.39;92.79;103624.06;6219122;28;20676;-71
2023/02/12 05:43:06;;;;;;;10.63;5.50;;;;;;;10.69;91.20;103612.88;6198408;28;20241;-71
2023/02/12 05:46:27;;;;;;;10.10;4.90;;;;;;;9.98;93.84;103637.56;6208612;28;20221;-70
2023/02/12 05:49:48;;;;;;;9.23;6.10;;;;;;;10.67;91.64;103634.53;6214717;28;20687;-70
2023/02/12 05:53:09;;;;;;;8.30;4.73;;;;;;;11.06;89.59;103634.50;6200707;28;20261;-70
2023/02/12 05:56:33;;;;;;;8.23;5.40;;;;;;;10.85;89.88;103635.50;6219246;28;20328;-71
2023/02/12 05:59:54;;;;;;;10.83;5.60;;;;;;;11.29;88.40;103642.41;6214569;28;20233;-70
2023/02/12 06:03:15;;;;;;;9.03;5.03;;;;;;;11.05;89.26;103641.75;6199683;28;20225;-71
2023/02/12 06:06:36;;;;;;;13.47;5.77;;;;;;;11.12;88.84;103636.91;6214950;28;20245;-71
2023/02/12 06:09:58;;;;;;;11.53;5.73;;;;;;;11.29;88.10;103637.00;6214863;28;20237;-71
2023/02/12 06:13:20;;;;;;;7.50;6.33;;;;;;;10.50;90.92;103647.88;6201208;28;20233;-70
2023/02/12 06:16:43;;;;;;;7.80;4.03;;;;;;;11.10;88.53;103638.81;6207664;28;20237;-70
2023/02/12 06:20:05;;;;;;;6.00;4.50;;;;;;;10.52;91.30;103640.59;6199944;28;20220;-71
2023/02/12 06:23:26;;;;;;;7.10;4.23;;;;;;;10.51;91.46;103646.94;6212704;28;20224;-71
2023/02/12 06:26:49;;;;;;;7.23;5.20;;;;;;;10.07;93.47;103648.84;6214727;28;20379;-70
2023/02/12 06:30:14;;;;;;;8.00;4.67;;;;;;;9.98;94.68;103640.25;6199342;28;20381;-70
2023/02/12 06:33:35;;;;;;;5.50;4.40;;;;;;;9.96;95.76;103639.44;6208165;28;20307;-70
2023/02/12 06:36:56;;;;;;;11.70;7.43;;;;;;;10.41;93.31;103641.06;6216328;28;20233;-70
2023/02/12 06:40:17;;;;;;;8.73;6.10;;;;;;;10.50;92.34;103649.69;6216968;28;20704;-70
2023/02/12 06:43:38;;;;;;;15.60;6.03;;;;;;;10.13;94.60;103647.72;6198021;28;20303;-70
2023/02/12 06:47:00;;;;;;;8.07;4.97;;;;;;;10.71;93.07;103655.03;6212599;28;20241;-71
2023/02/12 06:50:21;;;;;;;11.63;6.67;;;;;;;10.29;92.81;103656.91;6211808;28;20229;-71
2023/02/12 06:53:43;;;;;;;7.63;5.47;;;;;;;10.35;93.72;103668.31;6204870;28;20225;-71
2023/02/12 06:57:04;;;;;;;10.30;5.30;;;;;;;10.39;93.51;103671.72;6213744;28;20722;-71
2023/02/12 07:00:25;;;;;;;10.97;5.30;;;;;;;10.16;94.66;103678.13;6206370;28;20233;-71
2023/02/12 07:03:50;;;;;;;8.40;5.63;;;;;;;9.78;97.07;103680.63;6214289;28;20236;-71
2023/02/12 07:07:11;;;;;;;8.87;5.10;;;;;;;9.53;98.03;103692.34;6213469;28;20229;-71
2023/02/12 07:10:32;;;;;;;7.27;5.10;;;;;;;10.22;95.35;103687.78;6199636;28;20232;-71
2023/02/12 07:13:54;;;;;;;10.43;4.97;;;;;;;10.12;95.74;103691.78;6207739;28;20319;-71
2023/02/12 07:17:15;;;;;;;12.43;5.23;;;;;;;9.99;96.03;103693.22;6209445;28;20213;-71
2023/02/12 07:20:37;;;;;;;14.67;8.33;;;;;;;10.04;96.79;103693.88;6198537;28;20345;-71
2023/02/12 07:23:58;;;;;;;13.00;8.13;;;;;;;10.12;96.15;103699.88;6213907;28;20240;-71
2023/02/12 07:27:19;;;;;;;16.90;7.57;;;;;;;10.40;94.29;103706.75;6215996;28;20229;-72
2023/02/12 07:30:40;;;;;;;10.97;7.43;;;;;;;10.28;95.63;103709.09;6205026;28;20595;-71
2023/02/12 07:34:01;;;;;;;14.10;8.73;;;;;;;10.62;94.14;103713.91;6214644;28;20237;-71
2023/02/12 07:37:23;;;;;;;10.00;5.87;;;;;;;10.04;96.95;103715.44;6208096;28;20641;-70
2023/02/12 07:40:44;;;;;;;10.40;7.20;;;;;;;10.57;95.35;103711.41;6206902;28;20249;-71
2023/02/12 07:44:09;;;;;;;21.87;10.17;;;;;;;10.18;95.68;103705.88;6192576;28;21746;-71
2023/02/12 07:47:30;;;;;;;14.57;9.87;;;;;;;10.60;93.73;103715.81;6208471;28;20229;-71
2023/02/12 07:50:51;;;;;;;15.47;7.50;;;;;;;10.24;96.56;103712.84;6213619;28;20225;-72
2023/02/12 07:54:14;;;;;;;15.77;8.63;;;;;;;10.65;93.66;103722.75;6212009;28;20335;-71
2023/02/12 07:57:35;;;;;;;12.03;7.87;;;;;;;10.44;94.96;103713.75;6208457;28;20229;-70
2023/02/12 08:00:56;;;;;;;13.30;6.77;;;;;;;10.45;95.01;103720.03;6212688;28;20523;-72
2023/02/12 08:04:19;;;;;;;13.23;7.73;;;;;;;10.54;94.47;103708.84;6199304;28;20658;-71
2023/02/12 08:07:39;;;;;;;16.77;9.27;;;;;;;10.90;92.94;103715.31;6197930;28;20827;-71
2023/02/12 08:11:02;;;;;;;14.53;7.50;;;;;;;10.38;94.21;103723.94;6208816;28;20237;-71
2023/02/12 08:14:23;;;;;;;15.47;7.50;;;;;;;10.91;92.53;103725.16;6213029;28;20229;-71
2023/02/12 08:17:44;;;;;;;12.23;7.57;;;;;;;10.42;94.66;103728.25;6208227;28;20643;-72
2023/02/12 08:21:06;;;;;;;13.13;7.57;;;;;;;10.56;94.38;103720.44;6218966;28;20252;-71
2023/02/12 08:24:27;;;;;;;12.53;6.23;;;;;;;10.68;94.49;103725.28;6220116;28;20228;-71
2023/02/12 08:27:49;;;;;;;10.63;7.90;;;;;;;10.68;93.94;103722.59;6197555;28;20233;-70
2023/02/12 08:31:16;;;;;;;15.47;9.60;;;;;;;10.82;93.67;103733.69;6209365;28;20265;-72
2023/02/12 08:34:37;;;;;;;15.10;5.93;;;;;;;10.71;93.66;103733.25;6216649;28;20266;-71
2023/02/12 08:37:57;;;;;;;13.07;8.30;;;;;;;11.01;93.18;103740.00;6210581;28;20237;-71
2023/02/12 08:41:23;;;;;;;9.40;6.90;;;;;;;11.35;90.81;103742.03;6217234;28;20241;-71
2023/02/12 08:44:45;;;;;;;15.00;7.00;;;;;;;10.94;92.71;103751.13;6212163;28;20814;-70
2023/02/12 08:48:05;;;;;;;9.97;7.10;;;;;;;11.50;89.63;103740.44;6208523;28;20232;-71
2023/02/12 08:51:30;;;;;;;7.70;5.60;;;;;;;11.43;89.38;103747.09;6220627;28;20229;-72
2023/02/12 08:54:51;;;;;;;15.30;8.53;;;;;;;10.73;92.91;103755.66;6218070;28;20625;-72
2023/02/12 08:58:11;;;;;;;14.60;7.47;;;;;;;10.94;91.97;103748.44;6207478;28;20319;-70
2023/02/12 09:01:37;;;;;;;13.17;7.23;;;;;;;10.61;92.70;103758.91;6209668;28;20610;-71
2023/02/12 09:04:58;;;;;;;10.33;8.47;;;;;;;11.27;90.60;103752.31;6215068;28;20225;-70
2023/02/12 09:08:18;;;;;;;13.90;8.23;;;;;;;11.24;91.08;103766.84;6200052;28;20240;-70
2023/02/12 09:11:39;;;;;;;14.60;8.20;;;;;;;11.10;91.40;103763.88;6211794;28;20266;-71
2023/02/12 09:15:00;;;;;;;10.20;7.57;;;;;;;11.06;91.13;103764.97;6203803;28;20677;-70
2023/02/12 09:18:22;;;;;;;10.37;7.53;;;;;;;11.50;89.48;103757.53;6201621;28;20265;-70
2023/02/12 09:21:44;;;;;;;8.27;6.70;;;;;;;11.50;89.57;103770.16;6203129;28;20745;-72
2023/02/12 09:25:05;;;;;;;7.90;5.97;;;;;;;11.41;88.79;103771.47;6213985;28;20335;-71
2023/02/12 09:28:26;;;;;;;11.00;8.30;;;;;;;11.08;90.50;103768.47;6198533;28;20622;-71
2023/02/12 09:31:47;;;;;;;13.20;7.43;;;;;;;11.27;89.88;103766.72;6211976;28;20230;-71
2023/02/12 09:35:11;;;;;;;11.93;9.77;;;;;;;10.90;92.24;103766.59;6206263;28;20309;-71
2023/02/12 09:38:32;;;;;;;14.43;7.50;;;;;;;10.71;93.11;103778.25;6208863;28;20233;-72
2023/02/12 09:42:18;;;;;;;11.30;7.33;;;;;;;10.91;92.33;103778.28;6216231;28;20228;-71
2023/02/12 09:45:44;;;;;;;11.83;7.90;;;;;;;10.70;93.99;103785.47;6207257;28;20233;-71
2023/02/12 09:49:10;;;;;;;11.77;8.23;;;;;;;11.12;91.49;103785.41;6210183;28;20489;-72
2023/02/12 09:52:33;;;;;;;8.90;7.30;;;;;;;11.74;89.00;103785.28;6201363;28;20233;-71
2023/02/12 09:55:55;;;;;;;9.50;6.77;;;;;;;11.05;90.77;103787.53;6204532;28;20233;-71
2023/02/12 09:59:28;;;;;;;15.23;8.87;;;;;;;11.21;90.63;103790.41;6204420;28;20617;-71
2023/02/12 10:02:51;;;;;;;7.53;5.83;;;;;;;11.07;92.08;103792.84;6199129;28;20657;-70
2023/02/12 10:06:15;;;;;;;11.83;9.27;;;;;;;11.19;91.15;103795.00;6217871;28;20225;-71
2023/02/12 10:09:52;;;;;;;13.07;8.90;;;;;;;11.32;90.26;103803.44;6214410;28;20233;-71
2023/02/12 10:13:22;;;;;;;15.33;7.43;;;;;;;11.51;90.33;103793.53;6195389;28;20559;-72
2023/02/12 10:16:53;;;;;;;10.40;7.60;;;;;;;11.40;89.66;103798.56;6209770;28;20232;-72
2023/02/12 10:20:39;;;;;;;11.37;8.83;;;;;;;11.60;89.95;103812.03;6204231;28;20237;-71
2023/02/12 10:24:15;;;;;;;9.57;7.13;;;;;;;11.06;92.29;103808.16;6211280;28;20233;-71
2023/02/12 10:27:39;;;;;;;10.83;8.50;;;;;;;11.43;90.61;103803.81;6190034;28;20220;-71
2023/02/12 10:31:04;;;;;;;13.10;10.03;;;;;;;11.10;91.91;103798.09;6228209;28;20235;-72
2023/02/12 10:34:27;;;;;;;11.33;6.07;;;;;;;11.13;91.00;103801.56;6215190;28;20232;-71
2023/02/12 10:37:53;;;;;;;9.90;5.97;;;;;;;10.55;94.19;103805.00;6200789;28;20229;-71
2023/02/12 10:41:16;;;;;;;10.47;6.03;;;;;;;10.84;93.60;103801.06;6217251;28;20241;-72
2023/02/12 10:44:38;;;;;;;10.87;7.37;;;;;;;10.69;93.87;103791.81;6204931;28;20497;-71
2023/02/12 10:48:08;;;;;;;11.90;7.90;;;;;;;10.62;95.38;103798.41;6205950;28;20358;-71
2023/02/12 10:51:48;;;;;;;8.37;6.90;;;;;;;10.24;95.72;103797.28;6216107;28;20335;-70
2023/02/12 10:55:27;;;;;;;10.60;6.60;;;;;;;10.58;96.00;103796.78;6212667;28;20224;-71
2023/02/12 10:58:54;;;;;;;5.53;4.57;;;;;;;10.89;93.95;103790.97;6202699;28;20251;-71
2023/02/12 11:02:27;;;;;;;6.90;5.43;;;;;;;10.49;94.62;103785.50;6208026;28;20232;-71
2023/02/12 11:05:48;;;;;;;11.87;4.80;;;;;;;10.70;93.45;103782.75;6209757;28;20652;-71
2023/02/12 11:09:28;;;;;;;8.07;4.53;;;;;;;10.86;93.40;103785.69;6202915;28;20240;-72
2023/02/12 11:12:49;;;;;;;8.43;5.03;;;;;;;10.87;93.84;103779.34;6205498;28;20351;-71
2023/02/12 11:16:10;;;;;;;6.10;3.90;;;;;;;10.78;93.79;103782.44;6218479;28;20232;-71
2023/02/12 11:19:34;;;;;;;7.27;5.07;;;;;;;10.97;93.22;103784.25;6189588;28;20324;-71
2023/02/12 11:22:58;;;;;;;6.70;4.70;;;;;;;10.80;94.16;103780.56;6197039;28;20236;-72
2023/02/12 11:26:27;;;;;;;7.50;5.20;;;;;;;10.84;94.54;103776.78;6218498;28;20237;-71
2023/02/12 11:30:11;;;;;;;7.03;6.17;;;;;;;10.81;94.63;103774.19;6219874;28;20304;-72
2023/02/12 11:33:34;;;;;;;6.93;6.10;;;;;;;10.83;93.82;103778.59;6206420;28;20601;-72
2023/02/12 11:36:57;;;;;;;6.47;5.47;;;;;;;10.66;94.47;103769.50;6213449;28;20313;-69
2023/02/12 11:40:21;;;;;;;6.10;5.07;;;;;;;11.07;93.67;103766.75;6207710;28;20230;-71
2023/02/12 11:43:42;;;;;;;8.73;5.67;;;;;;;11.00;93.57;103767.94;6213798;28;20220;-70
2023/02/12 11:47:07;;;;;;;5.30;4.73;;;;;;;11.27;93.06;103761.31;6215036;28;20248;-71
2023/02/12 11:50:31;;;;;;;11.80;7.73;;;;;;;11.15;92.62;103771.78;6205861;28;20272;-71
2023/02/12 11:53:56;;;;;;;8.43;4.97;;;;;;;10.66;95.32;103767.66;6220995;28;20323;-71
2023/02/12 11:57:37;;;;;;;8.73;5.60;;;;;;;10.78;94.65;103760.88;6211315;28;20614;-71
2023/02/12 12:01:20;;;;;;;5.37;3.70;;;;;;;11.28;92.86;103760.34;6204600;28;20241;-71
2023/02/12 12:04:43;;;;;;;8.17;4.70;;;;;;;11.19;92.29;103758.09;6210204;28;20627;-71
2023/02/12 12:08:11;;;;;;;6.80;4.57;;;;;;;11.62;91.64;103759.66;6206122;28;20248;-71
2023/02/12 12:11:41;;;;;;;6.27;4.87;;;;;;;11.17;92.59;103757.28;6217335;28;20257;-70
2023/02/12 12:22:46;;;;;;;4.90;4.27;;;;;;;10.94;94.37;103757.41;6132964;28;20223;-70
2023/02/12 12:26:12;;;;;;;8.30;5.07;;;;;;;10.63;95.50;103757.00;6228237;28;20232;-71
2023/02/12 12:29:48;;;;;;;7.73;5.40;;;;;;;10.96;95.30;103747.44;6220383;28;20225;-71
2023/02/12 12:33:15;;;;;;;10.03;4.83;;;;;;;11.02;94.08;103748.97;6207101;28;20540;-71
2023/02/12 12:36:57;;;;;;;7.77;5.33;;;;;;;11.24;93.63;103750.63;6217881;28;20844;-70
2023/02/12 12:40:42;;;;;;;6.20;5.03;;;;;;;10.76;95.11;103743.88;6214705;28;20238;-70
2023/02/12 12:44:20;;;;;;;10.53;5.93;;;;;;;11.38;92.88;103732.91;6209721;28;20610;-71
2023/02/12 12:47:57;;;;;;;8.37;5.87;;;;;;;11.17;93.26;103732.97;6197601;28;20237;-70
2023/02/12 12:51:35;;;;;;;6.50;4.70;;;;;;;11.52;91.07;103720.53;6219023;28;20783;-70
2023/02/12 12:55:21;;;;;;;6.47;4.57;;;;;;;11.51;91.55;103721.50;6211808;28;20336;-70
2023/02/12 12:58:55;;;;;;;8.00;5.33;;;;;;;11.42;93.04;103718.31;6197429;28;20236;-73
2023/02/12 13:02:37;;;;;;;4.87;3.07;;;;;;;12.34;89.33;103711.97;6213163;28;20233;-70
2023/02/12 13:06:28;;;;;;;7.10;4.03;;;;;;;12.34;89.15;103706.56;6208678;28;20237;-71
2023/02/12 13:10:08;;;;;;;5.00;2.97;;;;;;;12.46;88.50;103708.63;6211932;28;20484;-70
2023/02/12 13:13:33;;;;;;;5.33;3.77;;;;;;;11.95;89.11;103709.41;6199383;28;20343;-71
2023/02/12 13:17:04;;;;;;;3.30;2.53;;;;;;;12.21;88.53;103710.84;6213648;28;20639;-70
2023/02/12 13:20:35;;;;;;;6.70;3.83;;;;;;;12.69;87.30;103702.91;6205170;28;20229;-70
2023/02/12 13:24:03;;;;;;;4.17;2.60;;;;;;;12.63;86.96;103703.22;6212908;28;20251;-70
2023/02/12 13:27:26;;;;;;;2.80;1.80;;;;;;;12.51;87.22;103701.16;6206142;28;20244;-70
2023/02/12 13:30:50;;;;;;;2.07;1.70;;;;;;;11.64;89.38;103714.53;6213681;28;20221;-72
2023/02/12 13:34:15;;;;;;;3.40;2.00;;;;;;;11.91;89.44;103705.13;6208980;28;20272;-71
2023/02/12 13:37:43;;;;;;;2.00;1.63;;;;;;;11.69;91.07;103707.13;6198328;28;20237;-71
2023/02/12 13:41:09;;;;;;;1.63;1.50;;;;;;;12.15;89.65;103704.84;6212258;28;20237;-68
2023/02/12 13:44:35;;;;;;;1.70;1.50;;;;;;;12.27;89.46;103709.63;6210073;28;20221;-70
2023/02/12 13:48:13;;;;;;;2.80;1.93;;;;;;;12.70;86.49;103699.22;6200715;28;20730;-69
2023/02/12 13:51:42;;;;;;;1.90;1.80;;;;;;;12.22;88.19;103707.19;6218282;28;20224;-69
2023/02/12 13:55:22;;;;;;;2.20;2.10;;;;;;;12.55;86.91;103705.47;6197533;28;20248;-71
2023/02/12 13:58:50;;;;;;;2.53;1.70;;;;;;;12.29;89.07;103695.09;6207494;28;20233;-70
2023/02/12 14:02:43;;;;;;;3.57;1.80;;;;;;;12.20;88.44;103698.28;6209185;28;20232;-70
2023/02/12 14:06:09;;;;;;;1.47;1.40;;;;;;;12.48;86.80;103692.31;6207175;28;20257;-71
2023/02/12 14:09:36;;;;;;;2.60;2.00;;;;;;;12.39;86.81;103695.50;6213470;28;20645;-70
2023/02/12 14:13:10;;;;;;;3.10;2.20;;;;;;;12.75;86.20;103688.16;6205971;28;20814;-70
2023/02/12 14:16:39;;;;;;;1.80;1.70;;;;;;;12.68;85.14;103681.34;6207807;28;21022;-70
2023/02/12 14:20:08;;;;;;;3.87;1.80;;;;;;;12.72;85.17;103681.06;6213327;28;20327;-71
2023/02/12 14:23:29;;;;;;;2.00;1.83;;;;;;;12.31;85.48;103695.88;6196344;28;20251;-71
2023/02/12 14:26:52;;;;;;;3.53;1.80;;;;;;;11.75;88.47;103690.59;6209487;28;20292;-71
2023/02/12 14:30:32;;;;;;;2.30;2.10;;;;;;;12.07;87.66;103696.25;6207996;28;20229;-69
2023/02/12 14:34:50;;;;;;;3.07;2.00;;;;;;;11.47;89.33;103694.69;6202409;28;20240;-71
2023/02/12 14:39:01;;;;;;;2.43;2.23;;;;;;;12.38;87.22;103707.28;6196272;28;20232;-70
2023/02/12 14:42:44;;;;;;;3.07;1.77;;;;;;;11.87;89.05;103700.81;6211962;28;20222;-69
2023/02/12 14:46:38;;;;;;;3.73;2.60;;;;;;;12.63;86.20;103696.94;6208053;28;20233;-70
2023/02/12 14:50:06;;;;;;;3.43;2.93;;;;;;;12.61;85.46;103694.31;6219119;28;20237;-71
2023/02/12 14:53:31;;;;;;;2.63;2.43;;;;;;;12.79;83.94;103703.28;6194861;28;20374;-70
2023/02/12 14:56:54;;;;;;;4.03;3.73;;;;;;;12.56;85.15;103701.78;6212713;28;20233;-73
2023/02/12 15:00:26;;;;;;;4.37;3.77;;;;;;;12.88;84.04;103702.81;6205303;28;20244;-71
2023/02/12 15:03:53;;;;;;;4.60;2.27;;;;;;;12.90;83.75;103697.28;6199713;28;20256;-72
2023/02/12 15:07:26;;;;;;;3.10;2.70;;;;;;;12.86;83.14;103696.59;6203418;28;20616;-73
2023/02/12 15:10:50;;;;;;;2.77;2.47;;;;;;;12.49;84.14;103704.91;6205477;28;20229;-71
2023/02/12 15:14:15;;;;;;;4.43;4.03;;;;;;;12.29;84.65;103715.84;6215006;28;20545;-70
2023/02/12 15:17:41;;;;;;;3.47;3.20;;;;;;;12.45;84.58;103715.00;6199816;28;20540;-70
2023/02/12 15:21:12;;;;;;;3.37;2.90;;;;;;;12.37;83.77;103714.50;6213428;28;20253;-70
2023/02/12 15:24:35;;;;;;;3.57;2.33;;;;;;;12.40;83.66;103710.78;6214237;28;20228;-70
2023/02/12 15:27:58;;;;;;;2.67;2.47;;;;;;;12.52;82.61;103702.03;6201831;28;20697;-70
2023/02/12 15:31:21;;;;;;;2.10;1.93;;;;;;;12.56;82.03;103703.59;6222286;28;20229;-71
2023/02/12 15:34:43;;;;;;;3.27;2.97;;;;;;;12.66;81.72;103705.75;6215478;28;20319;-71
2023/02/12 15:38:06;;;;;;;2.57;2.30;;;;;;;12.70;81.82;103701.94;6200751;28;20606;-72
2023/02/12 15:41:34;;;;;;;2.47;2.27;;;;;;;12.64;82.19;103704.13;6208021;28;20232;-74
2023/02/12 15:45:18;;;;;;;5.00;2.63;;;;;;;12.50;82.95;103715.63;6200361;28;20248;-71
2023/02/12 15:48:39;;;;;;;2.90;2.43;;;;;;;12.53;82.19;103704.66;6179947;28;20354;-72
2023/02/12 15:52:03;;;;;;;2.90;2.60;;;;;;;12.47;82.67;103712.22;6194864;28;20689;-71
2023/02/12 15:55:29;;;;;;;3.67;3.30;;;;;;;12.48;82.93;103714.84;6194543;28;20234;-71
2023/02/12 15:58:53;;;;;;;4.07;3.20;;;;;;;12.19;83.56;103710.03;6199242;28;20225;-71
2023/02/12 16:02:20;;;;;;;1.93;1.83;;;;;;;12.37;82.44;103719.91;6204760;28;20221;-74
2023/02/12 16:05:41;;;;;;;4.13;2.50;;;;;;;12.40;82.59;103719.78;6196246;28;20229;-71
2023/02/12 16:09:06;;;;;;;3.50;3.20;;;;;;;12.28;82.78;103716.81;6198495;28;20229;-71